sensor_id;sensor_type;location;lat;lon;timestamp;P1;durP1;ratioP1;P2;durP2;ratioP2
30707;SDS011;17458;48.958;8.284;2023-08-21T00:02:15;7.82;;;4.70;;
30707;SDS011;17458;48.958;8.284;2023-08-21T00:04:59;9.45;;;4.95;;
30707;SDS011;17458;48.958;8.284;2023-08-21T00:07:43;6.97;;;5.55;;
30707;SDS011;17458;48.958;8.284;2023-08-21T00:10:29;15.90;;;5.38;;
30707;SDS011;17458;48.958;8.284;2023-08-21T00:13:13;8.63;;;4.40;;
30707;SDS011;17458;48.958;8.284;2023-08-21T00:15:57;7.43;;;5.00;;
30707;SDS011;17458;48.958;8.284;2023-08-21T00:18:41;11.95;;;4.85;;
30707;SDS011;17458;48.958;8.284;2023-08-21T00:21:25;14.00;;;5.32;;
30707;SDS011;17458;48.958;8.284;2023-08-21T00:24:09;11.35;;;5.32;;
30707;SDS011;17458;48.958;8.284;2023-08-21T00:26:53;14.43;;;5.28;;
30707;SDS011;17458;48.958;8.284;2023-08-21T00:29:37;7.97;;;5.10;;
30707;SDS011;17458;48.958;8.284;2023-08-21T00:32:21;6.38;;;5.72;;
30707;SDS011;17458;48.958;8.284;2023-08-21T00:35:05;12.27;;;4.78;;
30707;SDS011;17458;48.958;8.284;2023-08-21T00:37:49;10.63;;;5.97;;
30707;SDS011;17458;48.958;8.284;2023-08-21T00:40:34;12.38;;;5.53;;
30707;SDS011;17458;48.958;8.284;2023-08-21T00:43:18;8.10;;;5.55;;
30707;SDS011;17458;48.958;8.284;2023-08-21T00:46:02;9.45;;;6.50;;
30707;SDS011;17458;48.958;8.284;2023-08-21T00:48:47;13.00;;;6.22;;
30707;SDS011;17458;48.958;8.284;2023-08-21T00:51:32;9.82;;;6.25;;
30707;SDS011;17458;48.958;8.284;2023-08-21T00:54:16;12.48;;;5.53;;
30707;SDS011;17458;48.958;8.284;2023-08-21T00:57:01;9.10;;;5.90;;
30707;SDS011;17458;48.958;8.284;2023-08-21T00:59:46;7.03;;;4.78;;
30707;SDS011;17458;48.958;8.284;2023-08-21T01:02:30;7.95;;;6.25;;
30707;SDS011;17458;48.958;8.284;2023-08-21T01:05:14;12.75;;;6.20;;
30707;SDS011;17458;48.958;8.284;2023-08-21T01:08:14;10.57;;;5.45;;
30707;SDS011;17458;48.958;8.284;2023-08-21T01:11:09;13.25;;;5.57;;
30707;SDS011;17458;48.958;8.284;2023-08-21T01:16:52;8.93;;;4.75;;
30707;SDS011;17458;48.958;8.284;2023-08-21T01:19:41;9.10;;;4.78;;
30707;SDS011;17458;48.958;8.284;2023-08-21T01:22:27;7.40;;;5.28;;
30707;SDS011;17458;48.958;8.284;2023-08-21T01:25:11;6.05;;;5.15;;
30707;SDS011;17458;48.958;8.284;2023-08-21T01:27:56;13.32;;;5.05;;
30707;SDS011;17458;48.958;8.284;2023-08-21T01:30:41;10.43;;;5.22;;
30707;SDS011;17458;48.958;8.284;2023-08-21T01:33:26;8.15;;;5.63;;
30707;SDS011;17458;48.958;8.284;2023-08-21T01:36:14;7.95;;;4.88;;
30707;SDS011;17458;48.958;8.284;2023-08-21T01:38:59;7.40;;;5.40;;
30707;SDS011;17458;48.958;8.284;2023-08-21T01:41:43;6.97;;;5.20;;
30707;SDS011;17458;48.958;8.284;2023-08-21T01:44:27;7.30;;;4.97;;
30707;SDS011;17458;48.958;8.284;2023-08-21T01:47:12;9.40;;;5.10;;
30707;SDS011;17458;48.958;8.284;2023-08-21T01:49:56;10.07;;;4.85;;
30707;SDS011;17458;48.958;8.284;2023-08-21T01:52:40;11.68;;;5.28;;
30707;SDS011;17458;48.958;8.284;2023-08-21T01:55:24;13.73;;;5.20;;
30707;SDS011;17458;48.958;8.284;2023-08-21T01:58:08;15.32;;;4.93;;
30707;SDS011;17458;48.958;8.284;2023-08-21T02:00:52;13.40;;;4.82;;
30707;SDS011;17458;48.958;8.284;2023-08-21T02:03:35;8.20;;;5.40;;
30707;SDS011;17458;48.958;8.284;2023-08-21T02:06:20;10.10;;;4.55;;
30707;SDS011;17458;48.958;8.284;2023-08-21T02:09:04;7.70;;;4.60;;
30707;SDS011;17458;48.958;8.284;2023-08-21T02:11:48;13.30;;;4.85;;
30707;SDS011;17458;48.958;8.284;2023-08-21T02:14:31;7.78;;;4.78;;
30707;SDS011;17458;48.958;8.284;2023-08-21T02:17:16;7.63;;;4.68;;
30707;SDS011;17458;48.958;8.284;2023-08-21T02:20:00;13.73;;;6.00;;
30707;SDS011;17458;48.958;8.284;2023-08-21T02:22:46;11.55;;;6.38;;
30707;SDS011;17458;48.958;8.284;2023-08-21T02:25:30;15.73;;;4.80;;
30707;SDS011;17458;48.958;8.284;2023-08-21T02:28:15;9.25;;;5.50;;
30707;SDS011;17458;48.958;8.284;2023-08-21T02:30:59;10.15;;;5.18;;
30707;SDS011;17458;48.958;8.284;2023-08-21T02:33:43;10.63;;;5.30;;
30707;SDS011;17458;48.958;8.284;2023-08-21T02:36:27;10.70;;;5.30;;
30707;SDS011;17458;48.958;8.284;2023-08-21T02:39:10;9.93;;;5.32;;
30707;SDS011;17458;48.958;8.284;2023-08-21T02:41:54;15.93;;;5.43;;
30707;SDS011;17458;48.958;8.284;2023-08-21T02:44:38;14.30;;;6.03;;
30707;SDS011;17458;48.958;8.284;2023-08-21T02:47:22;10.35;;;5.18;;
30707;SDS011;17458;48.958;8.284;2023-08-21T02:50:07;8.45;;;6.30;;
30707;SDS011;17458;48.958;8.284;2023-08-21T02:52:52;7.38;;;5.18;;
30707;SDS011;17458;48.958;8.284;2023-08-21T02:55:36;9.68;;;5.10;;
30707;SDS011;17458;48.958;8.284;2023-08-21T02:58:20;9.13;;;5.30;;
30707;SDS011;17458;48.958;8.284;2023-08-21T03:01:04;12.55;;;5.30;;
30707;SDS011;17458;48.958;8.284;2023-08-21T03:03:49;12.52;;;4.90;;
30707;SDS011;17458;48.958;8.284;2023-08-21T03:06:33;10.30;;;4.97;;
30707;SDS011;17458;48.958;8.284;2023-08-21T03:09:17;10.57;;;5.20;;
30707;SDS011;17458;48.958;8.284;2023-08-21T03:12:01;8.25;;;5.22;;
30707;SDS011;17458;48.958;8.284;2023-08-21T03:14:45;9.88;;;5.03;;
30707;SDS011;17458;48.958;8.284;2023-08-21T03:17:29;10.60;;;5.18;;
30707;SDS011;17458;48.958;8.284;2023-08-21T03:20:13;9.55;;;5.03;;
30707;SDS011;17458;48.958;8.284;2023-08-21T03:22:58;7.78;;;5.75;;
30707;SDS011;17458;48.958;8.284;2023-08-21T03:25:43;8.73;;;4.95;;
30707;SDS011;17458;48.958;8.284;2023-08-21T03:28:27;10.02;;;5.30;;
30707;SDS011;17458;48.958;8.284;2023-08-21T03:31:11;9.02;;;5.20;;
30707;SDS011;17458;48.958;8.284;2023-08-21T03:33:56;8.35;;;5.40;;
30707;SDS011;17458;48.958;8.284;2023-08-21T03:36:40;10.35;;;5.35;;
30707;SDS011;17458;48.958;8.284;2023-08-21T03:39:25;7.18;;;5.88;;
30707;SDS011;17458;48.958;8.284;2023-08-21T03:42:10;6.75;;;5.15;;
30707;SDS011;17458;48.958;8.284;2023-08-21T03:44:54;8.50;;;5.70;;
30707;SDS011;17458;48.958;8.284;2023-08-21T03:47:38;8.15;;;5.57;;
30707;SDS011;17458;48.958;8.284;2023-08-21T03:50:28;15.02;;;5.03;;
30707;SDS011;17458;48.958;8.284;2023-08-21T03:53:12;11.05;;;6.63;;
30707;SDS011;17458;48.958;8.284;2023-08-21T03:55:56;6.75;;;5.72;;
30707;SDS011;17458;48.958;8.284;2023-08-21T03:58:40;8.48;;;6.28;;
30707;SDS011;17458;48.958;8.284;2023-08-21T04:01:24;9.48;;;6.20;;
30707;SDS011;17458;48.958;8.284;2023-08-21T04:04:09;10.57;;;5.97;;
30707;SDS011;17458;48.958;8.284;2023-08-21T04:06:53;9.95;;;5.78;;
30707;SDS011;17458;48.958;8.284;2023-08-21T04:09:37;8.55;;;5.57;;
30707;SDS011;17458;48.958;8.284;2023-08-21T04:12:21;8.18;;;5.80;;
30707;SDS011;17458;48.958;8.284;2023-08-21T04:15:05;7.90;;;5.70;;
30707;SDS011;17458;48.958;8.284;2023-08-21T04:17:50;7.68;;;5.90;;
30707;SDS011;17458;48.958;8.284;2023-08-21T04:20:34;6.30;;;5.40;;
30707;SDS011;17458;48.958;8.284;2023-08-21T04:23:18;16.10;;;6.22;;
30707;SDS011;17458;48.958;8.284;2023-08-21T04:26:02;7.75;;;5.32;;
30707;SDS011;17458;48.958;8.284;2023-08-21T04:28:47;6.03;;;4.78;;
30707;SDS011;17458;48.958;8.284;2023-08-21T04:31:32;8.60;;;5.40;;
30707;SDS011;17458;48.958;8.284;2023-08-21T04:34:15;6.30;;;5.03;;
30707;SDS011;17458;48.958;8.284;2023-08-21T04:37:01;7.25;;;5.97;;
30707;SDS011;17458;48.958;8.284;2023-08-21T04:39:46;8.77;;;6.07;;
30707;SDS011;17458;48.958;8.284;2023-08-21T04:42:35;11.98;;;5.82;;
30707;SDS011;17458;48.958;8.284;2023-08-21T04:45:19;12.63;;;5.80;;
30707;SDS011;17458;48.958;8.284;2023-08-21T04:48:05;7.65;;;5.68;;
30707;SDS011;17458;48.958;8.284;2023-08-21T04:50:50;9.60;;;5.65;;
30707;SDS011;17458;48.958;8.284;2023-08-21T04:53:35;8.55;;;4.97;;
30707;SDS011;17458;48.958;8.284;2023-08-21T04:56:20;9.48;;;5.07;;
30707;SDS011;17458;48.958;8.284;2023-08-21T04:59:05;11.48;;;5.88;;
30707;SDS011;17458;48.958;8.284;2023-08-21T05:01:49;16.40;;;5.15;;
30707;SDS011;17458;48.958;8.284;2023-08-21T05:07:20;9.63;;;6.35;;
30707;SDS011;17458;48.958;8.284;2023-08-21T05:10:04;11.57;;;5.93;;
30707;SDS011;17458;48.958;8.284;2023-08-21T05:12:51;9.52;;;6.25;;
30707;SDS011;17458;48.958;8.284;2023-08-21T05:15:36;12.15;;;5.30;;
30707;SDS011;17458;48.958;8.284;2023-08-21T05:18:20;16.20;;;6.05;;
30707;SDS011;17458;48.958;8.284;2023-08-21T05:21:05;12.95;;;6.63;;
30707;SDS011;17458;48.958;8.284;2023-08-21T05:23:49;8.52;;;5.88;;
30707;SDS011;17458;48.958;8.284;2023-08-21T05:26:35;10.98;;;6.43;;
30707;SDS011;17458;48.958;8.284;2023-08-21T05:29:19;11.45;;;6.43;;
30707;SDS011;17458;48.958;8.284;2023-08-21T05:32:04;12.95;;;5.63;;
30707;SDS011;17458;48.958;8.284;2023-08-21T05:34:48;13.57;;;6.40;;
30707;SDS011;17458;48.958;8.284;2023-08-21T05:37:32;14.55;;;6.90;;
30707;SDS011;17458;48.958;8.284;2023-08-21T05:40:17;8.73;;;6.45;;
30707;SDS011;17458;48.958;8.284;2023-08-21T05:43:01;10.48;;;6.85;;
30707;SDS011;17458;48.958;8.284;2023-08-21T05:45:45;9.50;;;6.63;;
30707;SDS011;17458;48.958;8.284;2023-08-21T05:48:31;8.80;;;6.28;;
30707;SDS011;17458;48.958;8.284;2023-08-21T05:51:15;16.65;;;7.55;;
30707;SDS011;17458;48.958;8.284;2023-08-21T05:53:59;10.27;;;6.68;;
30707;SDS011;17458;48.958;8.284;2023-08-21T05:56:43;14.02;;;6.85;;
30707;SDS011;17458;48.958;8.284;2023-08-21T05:59:29;13.50;;;6.75;;
30707;SDS011;17458;48.958;8.284;2023-08-21T06:02:16;11.05;;;7.07;;
30707;SDS011;17458;48.958;8.284;2023-08-21T06:04:59;9.10;;;6.13;;
30707;SDS011;17458;48.958;8.284;2023-08-21T06:07:43;10.32;;;6.63;;
30707;SDS011;17458;48.958;8.284;2023-08-21T06:10:27;11.63;;;6.50;;
30707;SDS011;17458;48.958;8.284;2023-08-21T06:13:11;14.35;;;7.25;;
30707;SDS011;17458;48.958;8.284;2023-08-21T06:15:55;16.60;;;7.47;;
30707;SDS011;17458;48.958;8.284;2023-08-21T06:18:41;11.57;;;7.85;;
30707;SDS011;17458;48.958;8.284;2023-08-21T06:21:25;12.13;;;7.25;;
30707;SDS011;17458;48.958;8.284;2023-08-21T06:24:09;16.95;;;7.55;;
30707;SDS011;17458;48.958;8.284;2023-08-21T06:26:53;14.05;;;7.57;;
30707;SDS011;17458;48.958;8.284;2023-08-21T06:29:37;18.17;;;7.75;;
30707;SDS011;17458;48.958;8.284;2023-08-21T06:32:22;11.48;;;8.50;;
30707;SDS011;17458;48.958;8.284;2023-08-21T06:35:07;17.80;;;7.13;;
30707;SDS011;17458;48.958;8.284;2023-08-21T06:37:51;15.30;;;7.85;;
30707;SDS011;17458;48.958;8.284;2023-08-21T06:40:35;20.83;;;7.00;;
30707;SDS011;17458;48.958;8.284;2023-08-21T06:43:19;7.55;;;6.07;;
30707;SDS011;17458;48.958;8.284;2023-08-21T06:46:04;12.13;;;7.03;;
30707;SDS011;17458;48.958;8.284;2023-08-21T06:48:48;11.18;;;7.32;;
30707;SDS011;17458;48.958;8.284;2023-08-21T06:51:34;13.82;;;7.40;;
30707;SDS011;17458;48.958;8.284;2023-08-21T06:54:18;14.80;;;8.55;;
30707;SDS011;17458;48.958;8.284;2023-08-21T06:57:02;12.65;;;7.22;;
30707;SDS011;17458;48.958;8.284;2023-08-21T06:59:46;18.20;;;8.02;;
30707;SDS011;17458;48.958;8.284;2023-08-21T07:02:30;16.60;;;7.55;;
30707;SDS011;17458;48.958;8.284;2023-08-21T07:05:14;10.88;;;7.97;;
30707;SDS011;17458;48.958;8.284;2023-08-21T07:07:58;16.48;;;7.97;;
30707;SDS011;17458;48.958;8.284;2023-08-21T07:10:42;15.20;;;8.38;;
30707;SDS011;17458;48.958;8.284;2023-08-21T07:13:26;15.00;;;7.80;;
30707;SDS011;17458;48.958;8.284;2023-08-21T07:16:10;12.75;;;7.35;;
30707;SDS011;17458;48.958;8.284;2023-08-21T07:18:54;15.65;;;7.60;;
30707;SDS011;17458;48.958;8.284;2023-08-21T07:21:37;11.23;;;7.10;;
30707;SDS011;17458;48.958;8.284;2023-08-21T07:24:21;13.18;;;7.85;;
30707;SDS011;17458;48.958;8.284;2023-08-21T07:27:05;9.93;;;7.20;;
30707;SDS011;17458;48.958;8.284;2023-08-21T07:29:49;9.95;;;7.32;;
30707;SDS011;17458;48.958;8.284;2023-08-21T07:32:33;9.80;;;6.80;;
30707;SDS011;17458;48.958;8.284;2023-08-21T07:35:17;12.95;;;7.30;;
30707;SDS011;17458;48.958;8.284;2023-08-21T07:38:01;12.50;;;6.95;;
30707;SDS011;17458;48.958;8.284;2023-08-21T07:40:45;11.95;;;8.32;;
30707;SDS011;17458;48.958;8.284;2023-08-21T07:43:30;13.40;;;8.00;;
30707;SDS011;17458;48.958;8.284;2023-08-21T07:46:14;11.75;;;8.40;;
30707;SDS011;17458;48.958;8.284;2023-08-21T07:49:02;16.48;;;8.32;;
30707;SDS011;17458;48.958;8.284;2023-08-21T07:51:46;10.63;;;7.35;;
30707;SDS011;17458;48.958;8.284;2023-08-21T07:54:30;15.20;;;7.57;;
30707;SDS011;17458;48.958;8.284;2023-08-21T07:57:14;15.32;;;7.47;;
30707;SDS011;17458;48.958;8.284;2023-08-21T07:59:58;13.02;;;7.50;;
30707;SDS011;17458;48.958;8.284;2023-08-21T08:02:42;12.07;;;6.57;;
30707;SDS011;17458;48.958;8.284;2023-08-21T08:05:27;13.13;;;7.07;;
30707;SDS011;17458;48.958;8.284;2023-08-21T08:08:11;12.50;;;7.47;;
30707;SDS011;17458;48.958;8.284;2023-08-21T08:10:55;14.38;;;6.20;;
30707;SDS011;17458;48.958;8.284;2023-08-21T08:13:39;10.77;;;7.00;;
30707;SDS011;17458;48.958;8.284;2023-08-21T08:16:22;15.68;;;8.02;;
30707;SDS011;17458;48.958;8.284;2023-08-21T08:19:06;15.02;;;8.02;;
30707;SDS011;17458;48.958;8.284;2023-08-21T08:21:51;9.80;;;6.78;;
30707;SDS011;17458;48.958;8.284;2023-08-21T08:24:35;11.57;;;6.55;;
30707;SDS011;17458;48.958;8.284;2023-08-21T08:27:20;15.30;;;6.60;;
30707;SDS011;17458;48.958;8.284;2023-08-21T08:30:04;18.67;;;7.38;;
30707;SDS011;17458;48.958;8.284;2023-08-21T08:32:48;10.10;;;6.85;;
30707;SDS011;17458;48.958;8.284;2023-08-21T08:35:32;8.65;;;5.95;;
30707;SDS011;17458;48.958;8.284;2023-08-21T08:38:16;12.88;;;6.03;;
30707;SDS011;17458;48.958;8.284;2023-08-21T08:41:01;10.75;;;6.72;;
30707;SDS011;17458;48.958;8.284;2023-08-21T08:43:46;15.05;;;6.32;;
30707;SDS011;17458;48.958;8.284;2023-08-21T08:46:31;11.05;;;6.28;;
30707;SDS011;17458;48.958;8.284;2023-08-21T08:49:16;13.00;;;6.45;;
30707;SDS011;17458;48.958;8.284;2023-08-21T08:52:00;11.43;;;6.20;;
30707;SDS011;17458;48.958;8.284;2023-08-21T08:54:44;7.65;;;6.05;;
30707;SDS011;17458;48.958;8.284;2023-08-21T08:57:30;8.50;;;6.40;;
30707;SDS011;17458;48.958;8.284;2023-08-21T09:00:14;9.90;;;6.70;;
30707;SDS011;17458;48.958;8.284;2023-08-21T09:02:58;19.42;;;7.13;;
30707;SDS011;17458;48.958;8.284;2023-08-21T09:05:42;8.52;;;5.88;;
30707;SDS011;17458;48.958;8.284;2023-08-21T09:08:26;11.38;;;6.63;;
30707;SDS011;17458;48.958;8.284;2023-08-21T09:11:10;20.70;;;9.20;;
30707;SDS011;17458;48.958;8.284;2023-08-21T09:13:54;10.75;;;6.45;;
30707;SDS011;17458;48.958;8.284;2023-08-21T09:16:56;10.90;;;6.55;;
30707;SDS011;17458;48.958;8.284;2023-08-21T09:19:43;12.80;;;6.13;;
30707;SDS011;17458;48.958;8.284;2023-08-21T09:22:27;10.45;;;6.20;;
30707;SDS011;17458;48.958;8.284;2023-08-21T09:25:11;12.00;;;7.22;;
30707;SDS011;17458;48.958;8.284;2023-08-21T09:27:56;9.13;;;6.80;;
30707;SDS011;17458;48.958;8.284;2023-08-21T09:30:53;18.85;;;7.60;;
30707;SDS011;17458;48.958;8.284;2023-08-21T09:33:38;18.33;;;8.13;;
30707;SDS011;17458;48.958;8.284;2023-08-21T09:36:22;13.73;;;6.70;;
30707;SDS011;17458;48.958;8.284;2023-08-21T09:39:14;13.65;;;7.47;;
30707;SDS011;17458;48.958;8.284;2023-08-21T09:42:06;11.20;;;6.43;;
30707;SDS011;17458;48.958;8.284;2023-08-21T09:44:51;9.88;;;6.00;;
30707;SDS011;17458;48.958;8.284;2023-08-21T09:47:35;16.40;;;7.50;;
30707;SDS011;17458;48.958;8.284;2023-08-21T09:50:22;13.35;;;6.55;;
30707;SDS011;17458;48.958;8.284;2023-08-21T09:53:06;9.70;;;6.53;;
30707;SDS011;17458;48.958;8.284;2023-08-21T09:55:52;11.93;;;6.47;;
30707;SDS011;17458;48.958;8.284;2023-08-21T09:58:37;8.40;;;6.47;;
30707;SDS011;17458;48.958;8.284;2023-08-21T10:01:21;11.80;;;6.13;;
30707;SDS011;17458;48.958;8.284;2023-08-21T10:04:06;16.33;;;7.25;;
30707;SDS011;17458;48.958;8.284;2023-08-21T10:06:52;15.73;;;6.00;;
30707;SDS011;17458;48.958;8.284;2023-08-21T10:09:40;15.80;;;5.75;;
30707;SDS011;17458;48.958;8.284;2023-08-21T10:12:25;20.88;;;6.18;;
30707;SDS011;17458;48.958;8.284;2023-08-21T10:15:10;8.85;;;5.75;;
30707;SDS011;17458;48.958;8.284;2023-08-21T10:17:54;13.25;;;5.75;;
30707;SDS011;17458;48.958;8.284;2023-08-21T10:20:39;7.10;;;4.88;;
30707;SDS011;17458;48.958;8.284;2023-08-21T10:23:23;10.32;;;5.65;;
30707;SDS011;17458;48.958;8.284;2023-08-21T10:26:09;8.60;;;5.18;;
30707;SDS011;17458;48.958;8.284;2023-08-21T10:29:00;12.40;;;6.53;;
30707;SDS011;17458;48.958;8.284;2023-08-21T10:31:46;16.45;;;6.25;;
30707;SDS011;17458;48.958;8.284;2023-08-21T10:34:43;10.93;;;5.63;;
30707;SDS011;17458;48.958;8.284;2023-08-21T10:37:36;12.35;;;5.45;;
30707;SDS011;17458;48.958;8.284;2023-08-21T10:43:54;8.77;;;5.07;;
30707;SDS011;17458;48.958;8.284;2023-08-21T10:46:52;10.77;;;5.60;;
30707;SDS011;17458;48.958;8.284;2023-08-21T10:49:36;13.02;;;4.53;;
30707;SDS011;17458;48.958;8.284;2023-08-21T10:52:21;11.73;;;4.82;;
30707;SDS011;17458;48.958;8.284;2023-08-21T10:55:08;11.18;;;5.68;;
30707;SDS011;17458;48.958;8.284;2023-08-21T10:57:53;9.02;;;6.03;;
30707;SDS011;17458;48.958;8.284;2023-08-21T11:00:37;19.98;;;5.18;;
30707;SDS011;17458;48.958;8.284;2023-08-21T11:03:21;9.18;;;5.32;;
30707;SDS011;17458;48.958;8.284;2023-08-21T11:06:10;15.70;;;4.85;;
30707;SDS011;17458;48.958;8.284;2023-08-21T11:08:54;9.07;;;6.28;;
30707;SDS011;17458;48.958;8.284;2023-08-21T11:11:39;10.73;;;5.22;;
30707;SDS011;17458;48.958;8.284;2023-08-21T11:14:26;10.52;;;5.35;;
30707;SDS011;17458;48.958;8.284;2023-08-21T11:17:10;9.60;;;5.32;;
30707;SDS011;17458;48.958;8.284;2023-08-21T11:19:55;18.73;;;4.97;;
30707;SDS011;17458;48.958;8.284;2023-08-21T11:22:40;11.00;;;5.10;;
30707;SDS011;17458;48.958;8.284;2023-08-21T11:25:24;11.65;;;5.68;;
30707;SDS011;17458;48.958;8.284;2023-08-21T11:28:09;11.65;;;4.45;;
30707;SDS011;17458;48.958;8.284;2023-08-21T11:30:54;7.15;;;4.95;;
30707;SDS011;17458;48.958;8.284;2023-08-21T11:33:39;15.63;;;4.45;;
30707;SDS011;17458;48.958;8.284;2023-08-21T11:36:23;17.88;;;5.90;;
30707;SDS011;17458;48.958;8.284;2023-08-21T11:39:07;11.27;;;5.45;;
30707;SDS011;17458;48.958;8.284;2023-08-21T11:41:52;8.35;;;4.50;;
30707;SDS011;17458;48.958;8.284;2023-08-21T11:44:41;10.60;;;5.40;;
30707;SDS011;17458;48.958;8.284;2023-08-21T11:47:33;11.75;;;5.68;;
30707;SDS011;17458;48.958;8.284;2023-08-21T11:50:17;8.98;;;5.18;;
30707;SDS011;17458;48.958;8.284;2023-08-21T11:53:03;9.27;;;4.80;;
30707;SDS011;17458;48.958;8.284;2023-08-21T11:55:50;6.70;;;4.68;;
30707;SDS011;17458;48.958;8.284;2023-08-21T11:58:37;9.90;;;4.60;;
30707;SDS011;17458;48.958;8.284;2023-08-21T12:01:22;8.75;;;3.60;;
30707;SDS011;17458;48.958;8.284;2023-08-21T12:04:16;5.70;;;4.10;;
30707;SDS011;17458;48.958;8.284;2023-08-21T12:07:00;15.27;;;4.47;;
30707;SDS011;17458;48.958;8.284;2023-08-21T12:09:47;5.47;;;4.03;;
30707;SDS011;17458;48.958;8.284;2023-08-21T12:12:35;16.00;;;4.28;;
30707;SDS011;17458;48.958;8.284;2023-08-21T12:15:19;10.05;;;4.53;;
30707;SDS011;17458;48.958;8.284;2023-08-21T12:18:04;11.27;;;4.35;;
30707;SDS011;17458;48.958;8.284;2023-08-21T12:20:48;5.75;;;3.70;;
30707;SDS011;17458;48.958;8.284;2023-08-21T12:23:32;9.13;;;3.85;;
30707;SDS011;17458;48.958;8.284;2023-08-21T12:26:16;8.98;;;3.95;;
30707;SDS011;17458;48.958;8.284;2023-08-21T12:29:06;8.35;;;3.38;;
30707;SDS011;17458;48.958;8.284;2023-08-21T12:31:50;6.47;;;3.97;;
30707;SDS011;17458;48.958;8.284;2023-08-21T12:34:33;5.18;;;4.00;;
30707;SDS011;17458;48.958;8.284;2023-08-21T12:37:18;10.82;;;3.95;;
30707;SDS011;17458;48.958;8.284;2023-08-21T12:40:02;11.32;;;4.15;;
30707;SDS011;17458;48.958;8.284;2023-08-21T12:42:46;10.57;;;4.57;;
30707;SDS011;17458;48.958;8.284;2023-08-21T12:45:30;13.52;;;3.97;;
30707;SDS011;17458;48.958;8.284;2023-08-21T12:48:14;9.95;;;4.28;;
30707;SDS011;17458;48.958;8.284;2023-08-21T12:50:58;14.27;;;4.18;;
30707;SDS011;17458;48.958;8.284;2023-08-21T12:53:42;10.77;;;5.13;;
30707;SDS011;17458;48.958;8.284;2023-08-21T12:56:26;7.72;;;4.13;;
30707;SDS011;17458;48.958;8.284;2023-08-21T12:59:10;8.40;;;4.28;;
30707;SDS011;17458;48.958;8.284;2023-08-21T13:01:54;6.72;;;3.70;;
30707;SDS011;17458;48.958;8.284;2023-08-21T13:04:38;11.20;;;3.97;;
30707;SDS011;17458;48.958;8.284;2023-08-21T13:07:22;6.75;;;3.70;;
30707;SDS011;17458;48.958;8.284;2023-08-21T13:10:06;11.32;;;4.03;;
30707;SDS011;17458;48.958;8.284;2023-08-21T13:12:50;12.63;;;3.45;;
30707;SDS011;17458;48.958;8.284;2023-08-21T13:15:35;9.65;;;3.97;;
30707;SDS011;17458;48.958;8.284;2023-08-21T13:18:19;9.30;;;3.92;;
30707;SDS011;17458;48.958;8.284;2023-08-21T13:21:03;7.82;;;3.70;;
30707;SDS011;17458;48.958;8.284;2023-08-21T13:23:47;7.53;;;3.72;;
30707;SDS011;17458;48.958;8.284;2023-08-21T13:26:32;5.18;;;3.28;;
30707;SDS011;17458;48.958;8.284;2023-08-21T13:29:16;11.32;;;3.40;;
30707;SDS011;17458;48.958;8.284;2023-08-21T13:32:00;6.57;;;3.53;;
30707;SDS011;17458;48.958;8.284;2023-08-21T13:34:44;10.00;;;4.00;;
30707;SDS011;17458;48.958;8.284;2023-08-21T13:37:28;6.78;;;3.55;;
30707;SDS011;17458;48.958;8.284;2023-08-21T13:40:11;8.65;;;3.47;;
30707;SDS011;17458;48.958;8.284;2023-08-21T13:42:57;6.57;;;3.42;;
30707;SDS011;17458;48.958;8.284;2023-08-21T13:45:43;8.65;;;3.45;;
30707;SDS011;17458;48.958;8.284;2023-08-21T13:48:27;6.30;;;3.45;;
30707;SDS011;17458;48.958;8.284;2023-08-21T13:51:11;5.85;;;3.20;;
30707;SDS011;17458;48.958;8.284;2023-08-21T13:53:55;4.38;;;3.08;;
30707;SDS011;17458;48.958;8.284;2023-08-21T13:56:39;7.20;;;3.63;;
30707;SDS011;17458;48.958;8.284;2023-08-21T13:59:23;16.33;;;3.47;;
30707;SDS011;17458;48.958;8.284;2023-08-21T14:02:07;7.90;;;3.55;;
30707;SDS011;17458;48.958;8.284;2023-08-21T14:04:51;7.00;;;3.63;;
30707;SDS011;17458;48.958;8.284;2023-08-21T14:07:35;4.53;;;3.60;;
30707;SDS011;17458;48.958;8.284;2023-08-21T14:10:18;8.52;;;3.70;;
30707;SDS011;17458;48.958;8.284;2023-08-21T14:13:02;6.55;;;3.88;;
30707;SDS011;17458;48.958;8.284;2023-08-21T14:15:47;4.60;;;3.28;;
30707;SDS011;17458;48.958;8.284;2023-08-21T14:18:31;10.80;;;4.03;;
30707;SDS011;17458;48.958;8.284;2023-08-21T14:21:15;7.10;;;3.70;;
30707;SDS011;17458;48.958;8.284;2023-08-21T14:23:59;6.75;;;4.07;;
30707;SDS011;17458;48.958;8.284;2023-08-21T14:26:43;8.68;;;3.90;;
30707;SDS011;17458;48.958;8.284;2023-08-21T14:29:27;11.35;;;4.20;;
30707;SDS011;17458;48.958;8.284;2023-08-21T14:32:11;7.10;;;2.83;;
30707;SDS011;17458;48.958;8.284;2023-08-21T14:34:56;5.20;;;3.28;;
30707;SDS011;17458;48.958;8.284;2023-08-21T14:37:40;4.90;;;4.05;;
30707;SDS011;17458;48.958;8.284;2023-08-21T14:40:24;10.68;;;4.10;;
30707;SDS011;17458;48.958;8.284;2023-08-21T14:43:08;4.65;;;3.70;;
30707;SDS011;17458;48.958;8.284;2023-08-21T14:45:52;5.32;;;3.45;;
30707;SDS011;17458;48.958;8.284;2023-08-21T14:48:37;7.57;;;3.25;;
30707;SDS011;17458;48.958;8.284;2023-08-21T14:51:21;8.43;;;3.65;;
30707;SDS011;17458;48.958;8.284;2023-08-21T14:54:05;6.90;;;3.45;;
30707;SDS011;17458;48.958;8.284;2023-08-21T14:56:50;13.50;;;3.78;;
30707;SDS011;17458;48.958;8.284;2023-08-21T14:59:35;8.30;;;3.85;;
30707;SDS011;17458;48.958;8.284;2023-08-21T15:02:19;8.25;;;4.30;;
30707;SDS011;17458;48.958;8.284;2023-08-21T15:05:02;10.80;;;4.43;;
30707;SDS011;17458;48.958;8.284;2023-08-21T15:07:48;10.27;;;4.05;;
30707;SDS011;17458;48.958;8.284;2023-08-21T15:10:32;7.05;;;3.35;;
30707;SDS011;17458;48.958;8.284;2023-08-21T15:13:16;5.63;;;2.97;;
30707;SDS011;17458;48.958;8.284;2023-08-21T15:16:00;10.80;;;3.33;;
30707;SDS011;17458;48.958;8.284;2023-08-21T15:18:44;4.38;;;2.90;;
30707;SDS011;17458;48.958;8.284;2023-08-21T15:21:31;3.72;;;3.17;;
30707;SDS011;17458;48.958;8.284;2023-08-21T15:24:15;10.15;;;3.40;;
30707;SDS011;17458;48.958;8.284;2023-08-21T15:26:59;6.65;;;3.58;;
30707;SDS011;17458;48.958;8.284;2023-08-21T15:29:43;15.23;;;2.92;;
30707;SDS011;17458;48.958;8.284;2023-08-21T15:32:27;13.43;;;3.88;;
30707;SDS011;17458;48.958;8.284;2023-08-21T15:35:11;5.30;;;3.20;;
30707;SDS011;17458;48.958;8.284;2023-08-21T15:37:55;5.80;;;2.92;;
30707;SDS011;17458;48.958;8.284;2023-08-21T15:40:39;5.38;;;3.10;;
30707;SDS011;17458;48.958;8.284;2023-08-21T15:43:23;10.18;;;3.70;;
30707;SDS011;17458;48.958;8.284;2023-08-21T15:46:07;10.77;;;3.10;;
30707;SDS011;17458;48.958;8.284;2023-08-21T15:48:51;4.65;;;3.13;;
30707;SDS011;17458;48.958;8.284;2023-08-21T15:51:35;8.25;;;2.58;;
30707;SDS011;17458;48.958;8.284;2023-08-21T15:54:19;5.07;;;3.20;;
30707;SDS011;17458;48.958;8.284;2023-08-21T15:57:03;6.90;;;2.95;;
30707;SDS011;17458;48.958;8.284;2023-08-21T15:59:50;5.28;;;2.78;;
30707;SDS011;17458;48.958;8.284;2023-08-21T16:02:34;7.10;;;3.30;;
30707;SDS011;17458;48.958;8.284;2023-08-21T16:05:19;7.82;;;4.32;;
30707;SDS011;17458;48.958;8.284;2023-08-21T16:08:04;7.63;;;3.67;;
30707;SDS011;17458;48.958;8.284;2023-08-21T16:10:51;6.47;;;3.38;;
30707;SDS011;17458;48.958;8.284;2023-08-21T16:13:35;8.35;;;4.25;;
30707;SDS011;17458;48.958;8.284;2023-08-21T16:16:19;7.80;;;4.28;;
30707;SDS011;17458;48.958;8.284;2023-08-21T16:19:03;4.47;;;3.85;;
30707;SDS011;17458;48.958;8.284;2023-08-21T16:21:47;13.32;;;3.42;;
30707;SDS011;17458;48.958;8.284;2023-08-21T16:24:31;8.35;;;3.67;;
30707;SDS011;17458;48.958;8.284;2023-08-21T16:27:15;6.65;;;3.65;;
30707;SDS011;17458;48.958;8.284;2023-08-21T16:29:59;6.20;;;3.40;;
30707;SDS011;17458;48.958;8.284;2023-08-21T16:32:43;4.28;;;2.90;;
30707;SDS011;17458;48.958;8.284;2023-08-21T16:35:27;7.47;;;3.60;;